Time;durP1;ratioP1;P1;durP2;ratioP2;P2;SDS_P1;SDS_P2;PMS_P1;PMS_P2;Temp;Humidity;BMP_temperature;BMP_pressure;BME280_temperature;BME280_humidity;BME280_pressure;Samples;Min_cycle;Max_cycle;Signal;HPM_P1;HPM_P2
2021/10/17 00:00:58;;;;;;;6.18;3.55;;;12.40;68.40;;;;;;5075113;28;20083;-82
2021/10/17 00:03:24;;;;;;;7.28;3.50;;;12.40;68.40;;;;;;5108355;28;20439;-82
2021/10/17 00:05:50;;;;;;;7.13;3.40;;;12.40;68.40;;;;;;5108434;28;20033;-82
2021/10/17 00:08:16;;;;;;;10.13;3.47;;;12.40;68.50;;;;;;5108419;28;20024;-82
2021/10/17 00:10:41;;;;;;;5.43;3.00;;;12.40;68.50;;;;;;5108319;28;20032;-81
2021/10/17 00:13:09;;;;;;;9.25;3.65;;;12.30;68.50;;;;;;5108403;28;20021;-81
2021/10/17 00:15:36;;;;;;;7.63;3.78;;;12.30;68.40;;;;;;5075661;28;20038;-82
2021/10/17 00:18:04;;;;;;;6.65;3.30;;;12.30;68.40;;;;;;5075720;28;20032;-81
2021/10/17 00:20:30;;;;;;;6.60;3.50;;;12.30;68.50;;;;;;5108041;28;20048;-81
2021/10/17 00:22:56;;;;;;;10.77;4.35;;;12.30;68.60;;;;;;5075516;28;20028;-81
2021/10/17 00:25:23;;;;;;;6.72;3.72;;;12.30;68.60;;;;;;5090712;28;20103;-81
2021/10/17 00:27:49;;;;;;;6.30;3.00;;;12.30;68.60;;;;;;5107741;28;20515;-81
2021/10/17 00:30:15;;;;;;;5.90;3.03;;;12.30;68.60;;;;;;5090385;28;20557;-82
2021/10/17 00:32:41;;;;;;;8.15;3.38;;;12.30;68.50;;;;;;5075007;28;20031;-82
2021/10/17 00:35:08;;;;;;;8.98;3.30;;;12.30;68.50;;;;;;5090635;28;20024;-82
2021/10/17 00:37:35;;;;;;;6.68;3.58;;;12.30;68.50;;;;;;5107645;28;20051;-81
2021/10/17 00:40:05;;;;;;;6.30;3.35;;;12.30;68.60;;;;;;5107313;28;20043;-81
2021/10/17 00:42:31;;;;;;;6.55;3.58;;;12.30;68.50;;;;;;5107330;28;20473;-82
2021/10/17 00:45:00;;;;;;;6.10;3.35;;;12.30;68.40;;;;;;5107402;28;20170;-81
2021/10/17 00:47:26;;;;;;;9.77;3.67;;;12.30;68.40;;;;;;5090282;28;20021;-80
2021/10/17 00:49:53;;;;;;;8.63;3.33;;;12.30;68.30;;;;;;5090263;28;20103;-81
2021/10/17 00:52:19;;;;;;;8.02;3.13;;;12.30;68.30;;;;;;5090238;28;20119;-82
2021/10/17 00:54:46;;;;;;;9.10;3.65;;;12.30;68.20;;;;;;5107366;28;20051;-81
2021/10/17 00:57:14;;;;;;;6.22;3.35;;;12.30;68.20;;;;;;5074604;28;20039;-81
2021/10/17 00:59:40;;;;;;;9.55;3.03;;;12.30;68.20;;;;;;5074597;28;20036;-81
2021/10/17 01:02:06;;;;;;;5.97;2.85;;;12.30;68.20;;;;;;5107009;28;20025;-81
2021/10/17 01:04:33;;;;;;;9.80;3.25;;;12.30;68.20;;;;;;5090278;28;20056;-81
2021/10/17 01:06:59;;;;;;;11.55;3.72;;;12.30;68.30;;;;;;5107404;28;20024;-81
2021/10/17 01:09:24;;;;;;;7.07;3.10;;;12.30;68.30;;;;;;5107469;28;20074;-81
2021/10/17 01:11:50;;;;;;;8.75;3.38;;;12.20;68.20;;;;;;5106368;28;20397;-81
2021/10/17 01:14:18;;;;;;;8.85;3.40;;;12.30;68.30;;;;;;5107455;28;20024;-81
2021/10/17 01:16:45;;;;;;;9.02;3.50;;;12.30;68.30;;;;;;5107278;28;20068;-81
2021/10/17 01:19:11;;;;;;;9.25;3.85;;;12.30;68.20;;;;;;5107152;28;20492;-81
2021/10/17 01:21:38;;;;;;;8.55;3.50;;;12.30;68.20;;;;;;5107548;28;20032;-81
2021/10/17 01:24:05;;;;;;;6.63;3.30;;;12.30;68.30;;;;;;5107632;28;20501;-81
2021/10/17 01:26:31;;;;;;;6.85;3.05;;;12.30;68.20;;;;;;5090471;28;20037;-81
2021/10/17 01:28:57;;;;;;;7.65;3.30;;;12.30;68.20;;;;;;5090403;28;20480;-80
2021/10/17 01:31:33;;;;;;;5.70;3.50;;;12.20;68.10;;;;;;5089582;28;20481;-80
2021/10/17 01:33:58;;;;;;;6.68;3.30;;;12.20;68.10;;;;;;5106656;28;20028;-81
2021/10/17 01:36:24;;;;;;;8.63;3.17;;;12.20;68.20;;;;;;5089536;28;20075;-81
2021/10/17 01:42:13;;;;;;;6.63;3.13;;;12.20;68.30;;;;;;5074087;28;20024;-81
2021/10/17 01:44:39;;;;;;;8.15;3.65;;;12.20;68.30;;;;;;5073604;28;20480;-81
2021/10/17 01:47:07;;;;;;;10.98;3.53;;;12.20;68.30;;;;;;5089377;28;20111;-81
2021/10/17 01:49:33;;;;;;;8.52;3.47;;;12.20;68.30;;;;;;5089217;28;20421;-81
2021/10/17 01:51:59;;;;;;;7.05;3.10;;;12.20;68.30;;;;;;5089172;28;20021;-81
2021/10/17 01:54:25;;;;;;;9.52;3.47;;;12.30;68.40;;;;;;5089143;28;20032;-81
2021/10/17 01:56:51;;;;;;;6.65;3.05;;;12.30;68.40;;;;;;5089065;28;20070;-81
2021/10/17 01:59:16;;;;;;;8.27;3.22;;;12.20;68.50;;;;;;5074866;28;20074;-81
2021/10/17 02:01:43;;;;;;;10.75;3.20;;;12.20;68.60;;;;;;5088953;28;20480;-81
2021/10/17 02:04:09;;;;;;;7.05;3.40;;;12.20;68.60;;;;;;5089054;28;20032;-81
2021/10/17 02:06:35;;;;;;;5.78;3.30;;;12.20;68.80;;;;;;5089092;28;20032;-81
2021/10/17 02:09:01;;;;;;;8.40;3.47;;;12.20;68.80;;;;;;5089099;28;20055;-82
2021/10/17 02:11:27;;;;;;;8.27;3.25;;;12.20;68.90;;;;;;5088845;28;20024;-81
2021/10/17 02:13:52;;;;;;;7.68;3.20;;;12.20;69.00;;;;;;5088785;28;20476;-81
2021/10/17 02:19:40;;;;;;;7.13;3.00;;;12.20;69.20;;;;;;5073292;28;20027;-81
2021/10/17 02:22:06;;;;;;;7.00;3.30;;;12.20;69.20;;;;;;5088800;28;20024;-81
2021/10/17 02:24:31;;;;;;;7.78;3.05;;;12.10;69.30;;;;;;5088443;28;20035;-81
2021/10/17 02:26:57;;;;;;;10.00;3.72;;;12.10;69.40;;;;;;5088676;28;20031;-81
2021/10/17 02:29:23;;;;;;;9.60;3.33;;;12.10;69.50;;;;;;5088466;28;20137;-80
2021/10/17 02:31:48;;;;;;;6.63;3.15;;;12.10;69.60;;;;;;5073191;28;20477;-80
2021/10/17 02:34:14;;;;;;;7.88;3.08;;;12.10;69.60;;;;;;5088668;28;20074;-81
2021/10/17 02:36:40;;;;;;;7.10;3.22;;;12.10;69.60;;;;;;5073019;28;20025;-81
2021/10/17 02:39:05;;;;;;;11.40;3.55;;;12.10;69.60;;;;;;5088536;28;20029;-81
2021/10/17 02:41:32;;;;;;;5.57;3.08;;;12.10;69.60;;;;;;5088483;28;20032;-82
2021/10/17 02:43:57;;;;;;;8.35;3.13;;;12.10;69.70;;;;;;5088553;28;20396;-81
2021/10/17 02:46:23;;;;;;;12.98;3.83;;;12.10;69.60;;;;;;5088272;28;20043;-81
2021/10/17 02:48:48;;;;;;;7.85;3.28;;;12.10;69.60;;;;;;5088286;28;20032;-81
2021/10/17 02:51:14;;;;;;;8.10;3.30;;;12.10;69.60;;;;;;5088513;28;20025;-81
2021/10/17 02:53:40;;;;;;;6.95;3.60;;;12.00;69.60;;;;;;5088606;28;20418;-81
2021/10/17 02:56:05;;;;;;;9.32;3.60;;;12.10;69.70;;;;;;5088302;28;20021;-81
2021/10/17 03:01:53;;;;;;;5.93;3.20;;;12.00;69.80;;;;;;5072961;28;20024;-82
2021/10/17 03:04:19;;;;;;;6.40;3.45;;;12.00;69.80;;;;;;5088184;28;20020;-80
2021/10/17 03:06:48;;;;;;;8.93;3.50;;;12.10;69.90;;;;;;5088016;28;20024;-81
2021/10/17 03:09:14;;;;;;;6.93;3.50;;;12.00;70.00;;;;;;5088123;28;20024;-81
2021/10/17 03:11:39;;;;;;;6.32;3.15;;;12.00;70.10;;;;;;5088082;28;20020;-81
2021/10/17 03:14:05;;;;;;;6.78;3.60;;;12.00;70.20;;;;;;5088105;28;20032;-81
2021/10/17 03:16:31;;;;;;;8.13;3.35;;;12.00;70.30;;;;;;5088217;28;20498;-81
2021/10/17 03:18:57;;;;;;;5.57;3.25;;;12.00;70.30;;;;;;5072533;28;20029;-81
2021/10/17 03:21:22;;;;;;;5.43;3.33;;;12.00;70.30;;;;;;5072548;28;20070;-81
2021/10/17 03:23:48;;;;;;;8.15;3.33;;;12.00;70.40;;;;;;5088311;28;20103;-81
2021/10/17 03:26:14;;;;;;;8.57;3.80;;;12.00;70.50;;;;;;5088043;28;20051;-82
2021/10/17 03:28:40;;;;;;;9.35;3.60;;;12.00;70.50;;;;;;5088096;28;20405;-81
2021/10/17 03:31:07;;;;;;;9.93;3.53;;;12.00;70.60;;;;;;5087801;28;20046;-81
2021/10/17 03:33:33;;;;;;;6.57;3.38;;;12.00;70.70;;;;;;5087936;28;20021;-81
2021/10/17 03:35:59;;;;;;;12.18;3.75;;;12.00;70.70;;;;;;5090197;28;20034;-81
2021/10/17 03:38:25;;;;;;;7.25;3.28;;;12.00;70.70;;;;;;5091616;28;20036;-81
2021/10/17 03:40:50;;;;;;;8.82;3.65;;;12.00;70.70;;;;;;5091605;28;20107;-81
2021/10/17 03:43:16;;;;;;;9.18;3.55;;;12.00;70.70;;;;;;5091389;28;20499;-81
2021/10/17 03:45:42;;;;;;;6.90;3.58;;;12.00;70.60;;;;;;5091348;28;20028;-81
2021/10/17 03:48:08;;;;;;;7.95;3.45;;;12.00;70.60;;;;;;5091385;28;20024;-81
2021/10/17 03:50:34;;;;;;;10.10;4.03;;;12.00;70.60;;;;;;5077222;28;20036;-81
2021/10/17 03:53:00;;;;;;;8.63;3.72;;;12.00;70.50;;;;;;5091285;28;20032;-82
2021/10/17 03:55:27;;;;;;;8.63;3.47;;;12.00;70.60;;;;;;5091262;28;20028;-81
2021/10/17 03:57:53;;;;;;;9.93;3.58;;;11.90;70.50;;;;;;5091198;28;20021;-81
2021/10/17 04:00:18;;;;;;;6.43;3.53;;;11.90;70.60;;;;;;5091602;28;20376;-81
2021/10/17 04:02:44;;;;;;;6.97;3.65;;;11.90;70.70;;;;;;5091144;28;20480;-80
2021/10/17 04:05:10;;;;;;;9.23;3.80;;;11.90;70.60;;;;;;5091000;28;20024;-81
2021/10/17 04:07:39;;;;;;;6.18;3.95;;;11.90;70.70;;;;;;5091342;28;20017;-81
2021/10/17 04:10:06;;;;;;;11.07;3.92;;;11.90;70.70;;;;;;5090936;28;20518;-81
2021/10/17 04:12:31;;;;;;;7.85;3.33;;;11.90;70.70;;;;;;5080394;28;20094;-82
2021/10/17 04:14:57;;;;;;;8.02;3.80;;;11.90;70.70;;;;;;5090827;28;20017;-81
2021/10/17 04:17:23;;;;;;;7.78;3.97;;;11.90;70.60;;;;;;5091644;28;20020;-82
2021/10/17 04:19:49;;;;;;;7.53;4.10;;;11.90;70.60;;;;;;5091125;28;20109;-82
2021/10/17 04:22:15;;;;;;;6.57;3.55;;;11.80;70.60;;;;;;5091159;28;20032;-81
2021/10/17 04:24:41;;;;;;;5.35;3.22;;;11.80;70.60;;;;;;5090649;28;20591;-81
2021/10/17 04:27:08;;;;;;;9.35;4.00;;;11.80;70.60;;;;;;5091092;28;20230;-81
2021/10/17 04:29:35;;;;;;;6.75;3.95;;;11.80;70.60;;;;;;5075025;28;20529;-82
2021/10/17 04:32:01;;;;;;;6.63;4.15;;;11.80;70.60;;;;;;5090820;28;20027;-81
2021/10/17 04:34:26;;;;;;;7.53;3.55;;;11.80;70.70;;;;;;5090616;28;20111;-81
2021/10/17 04:36:52;;;;;;;10.18;4.47;;;11.80;70.60;;;;;;5090488;28;20043;-81
2021/10/17 04:42:41;;;;;;;9.32;3.80;;;11.80;70.60;;;;;;5075079;28;20031;-81
2021/10/17 04:45:07;;;;;;;7.72;3.78;;;11.80;70.60;;;;;;5090337;28;20115;-80
2021/10/17 04:47:33;;;;;;;7.10;3.90;;;11.70;70.50;;;;;;5090025;28;20021;-81
2021/10/17 04:49:59;;;;;;;7.80;4.30;;;11.70;70.50;;;;;;5090099;28;20081;-80
2021/10/17 04:52:25;;;;;;;10.63;4.45;;;11.70;70.60;;;;;;5090247;28;20024;-81
2021/10/17 04:54:50;;;;;;;7.20;3.70;;;11.70;70.60;;;;;;5090282;28;20029;-81
2021/10/17 04:57:16;;;;;;;10.15;3.97;;;11.70;70.60;;;;;;5090157;28;20430;-81
2021/10/17 04:59:42;;;;;;;8.73;3.67;;;11.70;70.60;;;;;;5090112;28;20047;-81
2021/10/17 05:02:07;;;;;;;7.95;4.20;;;11.70;70.60;;;;;;5090151;28;20082;-81
2021/10/17 05:04:37;;;;;;;7.30;3.75;;;11.70;70.60;;;;;;5089870;28;20013;-81
2021/10/17 05:07:02;;;;;;;10.40;4.35;;;11.60;70.60;;;;;;5090656;28;20028;-81
2021/10/17 05:09:28;;;;;;;8.25;4.25;;;11.60;70.60;;;;;;5090540;28;20104;-81
2021/10/17 05:11:53;;;;;;;8.18;4.20;;;11.60;70.70;;;;;;5090424;28;20031;-81
2021/10/17 05:14:19;;;;;;;8.70;4.90;;;11.50;70.60;;;;;;5090667;28;20066;-80
2021/10/17 05:16:45;;;;;;;9.70;4.20;;;11.50;70.70;;;;;;5090419;28;20472;-81
2021/10/17 05:19:10;;;;;;;10.40;4.03;;;11.50;70.70;;;;;;5090505;28;20021;-81
2021/10/17 05:21:36;;;;;;;7.72;3.63;;;11.50;70.70;;;;;;5074810;28;20376;-81
2021/10/17 05:24:02;;;;;;;7.15;4.18;;;11.50;70.70;;;;;;5090463;28;20111;-81
2021/10/17 05:26:28;;;;;;;8.40;4.50;;;11.50;70.80;;;;;;5090086;28;20109;-81
2021/10/17 05:28:57;;;;;;;10.30;4.40;;;11.50;71.50;;;;;;5092919;28;20024;-81
2021/10/17 05:31:23;;;;;;;9.65;4.43;;;11.50;71.00;;;;;;5090019;28;20108;-80
2021/10/17 05:33:49;;;;;;;7.70;4.20;;;11.40;71.00;;;;;;5089977;28;20023;-80
2021/10/17 05:36:14;;;;;;;9.82;4.43;;;11.40;71.10;;;;;;5089730;28;20123;-81
2021/10/17 05:38:41;;;;;;;12.18;4.20;;;11.40;71.20;;;;;;5089776;28;20024;-80
2021/10/17 05:41:07;;;;;;;7.78;3.70;;;11.40;71.20;;;;;;5089788;28;20341;-81
2021/10/17 05:43:33;;;;;;;9.32;3.90;;;11.40;71.20;;;;;;5089629;28;20484;-81
2021/10/17 05:45:59;;;;;;;7.63;4.40;;;11.40;71.20;;;;;;5090454;28;20031;-80
2021/10/17 05:48:24;;;;;;;8.38;3.90;;;11.40;71.20;;;;;;5090421;28;20392;-81
2021/10/17 05:50:50;;;;;;;10.15;4.10;;;11.40;71.20;;;;;;5089861;28;20019;-81
2021/10/17 05:53:16;;;;;;;10.68;4.43;;;11.40;71.20;;;;;;5089693;28;20481;-81
2021/10/17 05:55:41;;;;;;;8.27;4.53;;;11.50;71.20;;;;;;5089477;28;20032;-81
2021/10/17 05:58:07;;;;;;;8.25;4.20;;;11.40;71.20;;;;;;5089164;28;20024;-80
2021/10/17 06:00:33;;;;;;;7.60;4.00;;;11.40;71.20;;;;;;5089881;28;20081;-80
2021/10/17 06:03:00;;;;;;;8.27;4.15;;;11.40;71.30;;;;;;5089893;28;20035;-80
2021/10/17 06:05:26;;;;;;;8.63;4.47;;;11.40;71.30;;;;;;5089285;28;20047;-81
2021/10/17 06:07:51;;;;;;;9.40;4.38;;;11.50;71.40;;;;;;5089515;28;20476;-81
2021/10/17 06:10:17;;;;;;;8.68;4.25;;;11.40;71.40;;;;;;5089531;28;20116;-81
2021/10/17 06:12:43;;;;;;;8.32;4.05;;;11.40;71.40;;;;;;5089363;28;20013;-80
2021/10/17 06:15:10;;;;;;;9.05;4.30;;;11.40;71.40;;;;;;5089510;28;20049;-81
2021/10/17 06:17:36;;;;;;;10.38;4.18;;;11.40;71.40;;;;;;5088858;28;20031;-81
2021/10/17 06:20:03;;;;;;;8.57;4.22;;;11.40;71.50;;;;;;5073360;28;20020;-81
2021/10/17 06:22:29;;;;;;;8.77;4.82;;;11.40;71.40;;;;;;5089096;28;20452;-80
2021/10/17 06:24:54;;;;;;;8.27;4.18;;;11.40;71.40;;;;;;5088903;28;20036;-81
2021/10/17 06:27:20;;;;;;;7.82;4.30;;;11.40;71.40;;;;;;5088882;28;20025;-82
2021/10/17 06:29:46;;;;;;;9.52;4.57;;;11.40;71.30;;;;;;5088603;28;20101;-81
2021/10/17 06:32:12;;;;;;;7.18;4.07;;;11.50;71.40;;;;;;5088704;28;20012;-81
2021/10/17 06:34:37;;;;;;;9.88;4.55;;;11.50;71.40;;;;;;5088539;28;20056;-79
2021/10/17 06:37:05;;;;;;;7.60;4.00;;;11.40;71.30;;;;;;5088896;28;20429;-81
2021/10/17 06:39:30;;;;;;;7.78;4.35;;;11.50;71.30;;;;;;5088649;28;20024;-80
2021/10/17 06:41:56;;;;;;;6.70;4.22;;;11.40;71.20;;;;;;5088672;28;20021;-81
2021/10/17 06:44:22;;;;;;;8.32;4.57;;;11.50;71.30;;;;;;5088697;28;20430;-82
2021/10/17 06:46:49;;;;;;;8.90;4.75;;;11.50;71.20;;;;;;5071872;28;20028;-81
2021/10/17 06:49:15;;;;;;;10.07;4.65;;;11.40;71.20;;;;;;5073110;28;20025;-82
2021/10/17 06:51:40;;;;;;;9.00;4.15;;;11.50;71.20;;;;;;5091130;28;20028;-81
2021/10/17 06:54:06;;;;;;;7.22;4.30;;;11.50;71.10;;;;;;5091042;28;20387;-82
2021/10/17 06:56:32;;;;;;;9.82;4.25;;;11.50;71.10;;;;;;5091016;28;20032;-81
2021/10/17 06:58:57;;;;;;;7.63;4.00;;;11.50;71.00;;;;;;5090947;28;20397;-82
2021/10/17 07:01:23;;;;;;;10.55;4.18;;;11.50;71.00;;;;;;5091099;28;20043;-80
2021/10/17 07:03:49;;;;;;;8.90;4.30;;;11.60;71.00;;;;;;5090763;28;20020;-81
2021/10/17 07:06:14;;;;;;;6.80;4.20;;;11.60;70.90;;;;;;5090849;28;20096;-81
2021/10/17 07:08:40;;;;;;;9.27;4.22;;;11.70;70.90;;;;;;5090994;28;20017;-81
2021/10/17 07:11:06;;;;;;;8.60;4.15;;;11.70;70.80;;;;;;5093426;28;20052;-85
2021/10/17 07:13:31;;;;;;;7.18;4.13;;;11.70;70.80;;;;;;5094265;28;20167;-81
2021/10/17 07:15:57;;;;;;;8.35;4.43;;;11.70;70.80;;;;;;5094715;28;20031;-80
2021/10/17 07:18:23;;;;;;;9.07;4.45;;;11.70;70.70;;;;;;5094156;28;20039;-80
2021/10/17 07:20:50;;;;;;;8.38;4.07;;;11.80;70.60;;;;;;5094146;28;20028;-79
2021/10/17 07:23:16;;;;;;;8.00;4.47;;;11.80;70.50;;;;;;5081104;28;20039;-77
2021/10/17 07:25:42;;;;;;;8.93;4.30;;;11.80;70.50;;;;;;5077880;28;20028;-78
2021/10/17 07:28:08;;;;;;;8.10;4.45;;;11.80;70.40;;;;;;5091673;28;20027;-79
2021/10/17 07:30:34;;;;;;;10.30;5.30;;;11.90;70.30;;;;;;5091292;28;20029;-79
2021/10/17 07:33:00;;;;;;;10.05;4.30;;;11.80;70.10;;;;;;5091500;28;20082;-79
2021/10/17 07:35:25;;;;;;;7.68;3.90;;;11.80;70.00;;;;;;5091433;28;20047;-81
2021/10/17 07:37:51;;;;;;;10.23;4.63;;;11.90;69.90;;;;;;5091563;28;20797;-79
2021/10/17 07:40:20;;;;;;;7.75;4.55;;;11.90;69.80;;;;;;5091359;28;20021;-79
2021/10/17 07:42:45;;;;;;;10.30;4.95;;;11.90;69.70;;;;;;5075633;28;20039;-79
2021/10/17 07:45:11;;;;;;;8.82;4.55;;;11.90;69.70;;;;;;5075490;28;20020;-79
2021/10/17 07:47:36;;;;;;;7.57;4.40;;;12.00;69.70;;;;;;5090945;28;20016;-78
2021/10/17 07:50:04;;;;;;;11.77;4.47;;;12.00;69.60;;;;;;5091025;28;20012;-79
2021/10/17 07:52:29;;;;;;;10.15;4.53;;;12.10;69.50;;;;;;5091077;28;20530;-80
2021/10/17 07:54:55;;;;;;;8.90;4.55;;;12.20;69.50;;;;;;5091292;28;20021;-80
2021/10/17 07:57:21;;;;;;;11.32;4.50;;;12.20;69.40;;;;;;5080921;28;20072;-79
2021/10/17 07:59:47;;;;;;;9.88;4.50;;;12.30;69.30;;;;;;5090977;28;20021;-80
2021/10/17 08:02:12;;;;;;;9.90;4.57;;;12.30;69.30;;;;;;5093634;28;20449;-80
2021/10/17 08:04:40;;;;;;;7.82;4.40;;;12.40;69.20;;;;;;5090980;28;20389;-80
2021/10/17 08:07:06;;;;;;;10.63;4.53;;;12.50;69.10;;;;;;5090931;28;20032;-79
2021/10/17 08:12:54;;;;;;;9.50;4.30;;;12.60;68.80;;;;;;5075654;28;20071;-80
2021/10/17 08:15:19;;;;;;;8.90;4.30;;;12.60;68.50;;;;;;5090783;28;20020;-81
2021/10/17 08:17:45;;;;;;;10.13;4.70;;;12.60;68.40;;;;;;5090670;28;20063;-80
2021/10/17 08:20:10;;;;;;;5.88;4.20;;;12.70;68.40;;;;;;5074891;28;20031;-80
2021/10/17 08:22:37;;;;;;;10.48;4.60;;;12.70;68.40;;;;;;5075100;28;20024;-81
2021/10/17 08:25:05;;;;;;;7.63;4.10;;;12.70;68.20;;;;;;5090531;28;20051;-80
2021/10/17 08:27:35;;;;;;;8.93;4.13;;;12.80;68.20;;;;;;5090647;28;20017;-79
2021/10/17 08:30:01;;;;;;;7.13;3.92;;;12.90;68.10;;;;;;5090363;28;20040;-80
2021/10/17 08:32:27;;;;;;;8.20;4.38;;;12.90;68.10;;;;;;5090514;28;20074;-81
2021/10/17 08:34:53;;;;;;;9.70;4.50;;;13.00;68.10;;;;;;5090806;28;20021;-79
2021/10/17 08:37:18;;;;;;;7.85;4.10;;;13.00;68.60;;;;;;5090558;28;20439;-80
2021/10/17 08:40:21;;;;;;;8.05;4.20;;;13.10;68.00;;;;;;5090456;28;20028;-81
2021/10/17 08:42:47;;;;;;;8.05;4.53;;;13.10;67.80;;;;;;5090778;28;20024;-81
2021/10/17 08:45:13;;;;;;;11.02;4.80;;;13.10;67.70;;;;;;5093844;28;20124;-80
2021/10/17 08:47:39;;;;;;;6.47;4.22;;;13.20;67.60;;;;;;5090425;28;20025;-80
2021/10/17 08:50:09;;;;;;;8.30;4.40;;;13.10;67.40;;;;;;5075018;28;20021;-79
2021/10/17 08:55:56;;;;;;;9.85;4.53;;;13.20;67.30;;;;;;5074764;28;20032;-80
2021/10/17 08:58:22;;;;;;;7.78;4.30;;;13.20;67.30;;;;;;5090619;28;20020;-80
2021/10/17 09:00:48;;;;;;;10.55;4.63;;;13.30;67.30;;;;;;5090416;28;20476;-78
2021/10/17 09:03:32;;;;;;;6.35;4.05;;;13.30;67.30;;;;;;5090506;28;20017;-78
2021/10/17 09:06:16;;;;;;;7.63;4.60;;;13.40;67.20;;;;;;5090035;28;20025;-81
2021/10/17 09:08:42;;;;;;;7.05;3.88;;;13.40;67.00;;;;;;5090071;28;20062;-79
2021/10/17 09:11:08;;;;;;;8.50;4.20;;;13.40;67.00;;;;;;5089926;28;20424;-78
2021/10/17 09:13:34;;;;;;;7.13;4.10;;;13.50;66.90;;;;;;5074458;28;20070;-79
2021/10/17 09:15:59;;;;;;;7.97;4.07;;;13.50;66.70;;;;;;5089661;28;20024;-80
2021/10/17 09:18:25;;;;;;;9.20;4.07;;;13.50;66.60;;;;;;5074086;28;20060;-79
2021/10/17 09:21:03;;;;;;;7.80;4.10;;;13.50;66.50;;;;;;5089346;28;20035;-78
2021/10/17 09:23:33;;;;;;;7.10;4.07;;;13.50;66.40;;;;;;5089540;28;20123;-78
2021/10/17 09:26:05;;;;;;;8.02;4.25;;;13.60;66.30;;;;;;5089527;28;20431;-78
2021/10/17 09:28:31;;;;;;;7.78;4.00;;;13.70;66.20;;;;;;5090074;28;20024;-80
2021/10/17 09:31:51;;;;;;;8.68;4.50;;;13.70;66.10;;;;;;5059724;28;20535;-79
2021/10/17 09:34:26;;;;;;;9.48;4.10;;;13.70;66.00;;;;;;5066079;28;20040;-80
2021/10/17 09:37:05;;;;;;;7.68;4.28;;;13.70;65.90;;;;;;5053560;28;20082;-78
2021/10/17 09:39:38;;;;;;;10.02;4.20;;;13.80;65.90;;;;;;5068833;28;20345;-79
2021/10/17 09:42:06;;;;;;;9.30;4.55;;;13.80;65.90;;;;;;5035596;28;20519;-79
2021/10/17 09:44:42;;;;;;;8.38;4.20;;;13.80;65.70;;;;;;5068858;28;20108;-78
2021/10/17 09:47:08;;;;;;;9.90;4.78;;;13.80;65.60;;;;;;5053429;28;20040;-78
2021/10/17 09:49:34;;;;;;;8.57;4.10;;;13.80;65.70;;;;;;5055860;28;20493;-78
2021/10/17 09:52:24;;;;;;;8.65;4.32;;;13.80;65.50;;;;;;5068707;28;20025;-79
2021/10/17 09:54:52;;;;;;;8.88;4.32;;;13.90;65.50;;;;;;5069008;28;20082;-80
2021/10/17 09:57:18;;;;;;;8.73;4.00;;;13.90;65.40;;;;;;5056908;28;20044;-83
2021/10/17 09:59:44;;;;;;;8.40;4.40;;;14.00;65.40;;;;;;5056756;28;20029;-87
2021/10/17 10:02:11;;;;;;;10.52;4.40;;;14.10;65.20;;;;;;5054864;28;20028;-86
2021/10/17 10:04:39;;;;;;;8.32;4.13;;;14.20;65.00;;;;;;5070919;28;20052;-82
2021/10/17 10:07:07;;;;;;;9.30;4.60;;;14.30;64.80;;;;;;5054310;28;20112;-82
2021/10/17 10:09:32;;;;;;;7.35;4.30;;;14.40;64.70;;;;;;5070535;28;20075;-82
2021/10/17 10:11:58;;;;;;;8.18;4.40;;;14.40;64.50;;;;;;5054778;28;20473;-83
2021/10/17 10:14:25;;;;;;;10.82;4.55;;;14.50;64.30;;;;;;5070031;28;20071;-79
2021/10/17 10:16:55;;;;;;;8.15;4.60;;;14.60;64.10;;;;;;5068905;28;20361;-80
2021/10/17 10:19:21;;;;;;;8.73;4.60;;;14.70;64.00;;;;;;5068923;28;20029;-80
2021/10/17 10:21:46;;;;;;;7.72;4.43;;;14.70;63.90;;;;;;5068300;28;20342;-80
2021/10/17 10:24:16;;;;;;;9.10;4.50;;;14.80;63.90;;;;;;5051830;28;20078;-80
2021/10/17 10:26:42;;;;;;;7.63;4.40;;;14.80;63.70;;;;;;5051675;28;20036;-80
2021/10/17 10:29:08;;;;;;;9.13;4.88;;;14.80;63.60;;;;;;5068441;28;20025;-79
2021/10/17 10:31:40;;;;;;;8.15;4.20;;;14.90;63.50;;;;;;5052895;28;20112;-80
2021/10/17 10:34:06;;;;;;;5.20;3.97;;;14.90;63.30;;;;;;5084722;28;20044;-79
2021/10/17 10:36:43;;;;;;;6.90;4.30;;;15.00;63.20;;;;;;5088667;28;20029;-79
2021/10/17 10:39:10;;;;;;;7.75;4.10;;;15.00;62.90;;;;;;5088570;28;20033;-79
2021/10/17 10:41:58;;;;;;;8.45;4.35;;;15.00;62.80;;;;;;5105467;28;20048;-79
2021/10/17 10:44:40;;;;;;;10.07;4.85;;;15.00;62.50;;;;;;5074408;28;20029;-80
2021/10/17 10:47:26;;;;;;;7.65;4.25;;;15.00;62.60;;;;;;5092573;28;20115;-80
2021/10/17 10:50:01;;;;;;;10.43;4.25;;;15.00;62.30;;;;;;5092486;28;20031;-81
2021/10/17 10:52:29;;;;;;;9.27;4.20;;;15.00;62.30;;;;;;5109327;28;20112;-80
2021/10/17 10:55:00;;;;;;;7.82;3.97;;;15.00;62.40;;;;;;5109589;28;20028;-80
2021/10/17 10:57:41;;;;;;;8.48;4.32;;;15.00;62.30;;;;;;5109464;28;20029;-81
2021/10/17 11:00:10;;;;;;;7.03;3.80;;;15.00;62.30;;;;;;5095104;28;20032;-83
2021/10/17 11:06:07;;;;;;;8.05;4.28;;;15.10;62.20;;;;;;5082036;28;20042;-86
2021/10/17 11:08:40;;;;;;;9.10;4.05;;;15.20;62.20;;;;;;5079642;28;20032;-84
2021/10/17 11:11:06;;;;;;;;;;;15.20;62.00;;;;;;5096188;28;20402;-82
2021/10/17 11:13:41;;;;;;;7.55;4.10;;;15.30;61.90;;;;;;5093684;28;19954;-83
2021/10/17 11:16:09;;;;;;;9.23;4.20;;;15.30;61.70;;;;;;5096033;28;20020;-83
2021/10/17 11:18:39;;;;;;;9.35;4.20;;;15.30;61.90;;;;;;5077974;28;20031;-82
2021/10/17 11:21:07;;;;;;;8.55;4.45;;;15.40;61.90;;;;;;5095002;28;20024;-82
2021/10/17 11:23:37;;;;;;;9.85;4.38;;;15.40;61.80;;;;;;5081851;28;20031;-82
2021/10/17 11:26:09;;;;;;;7.32;4.10;;;15.40;61.60;;;;;;5079184;28;20119;-75
2021/10/17 11:28:38;;;;;;;7.22;3.53;;;15.40;61.60;;;;;;5096005;28;20044;-81
2021/10/17 11:34:26;;;;;;;6.22;3.28;;;15.40;61.20;;;;;;5080140;28;20110;-77
2021/10/17 11:36:52;;;;;;;6.97;4.07;;;15.30;61.30;;;;;;5081280;28;20028;-81
2021/10/17 11:39:21;;;;;;;5.78;3.58;;;15.30;61.10;;;;;;5102638;28;20037;-82
2021/10/17 11:41:47;;;;;;;6.63;3.53;;;15.30;61.10;;;;;;5117607;28;20024;-82
2021/10/17 11:44:53;;;;;;;5.82;3.38;;;15.30;61.10;;;;;;5082986;28;20024;-82
2021/10/17 11:47:19;;;;;;;5.68;3.10;;;15.40;60.90;;;;;;5093656;28;20060;-82
2021/10/17 11:50:25;;;;;;;8.40;3.67;;;15.40;60.80;;;;;;5077256;28;20523;-80
2021/10/17 11:56:15;;;;;;;6.53;3.17;;;15.60;60.50;;;;;;5075028;28;20039;-80
2021/10/17 11:58:41;;;;;;;4.93;3.10;;;15.70;60.10;;;;;;5091755;28;20020;-79
2021/10/17 12:01:43;;;;;;;5.18;2.90;;;15.70;60.20;;;;;;5075926;28;20035;-79
2021/10/17 12:07:33;;;;;;;7.05;2.97;;;15.80;59.50;;;;;;5075683;28;20051;-80
2021/10/17 12:09:58;;;;;;;6.05;2.70;;;15.80;59.20;;;;;;5095993;28;20078;-78
2021/10/17 12:12:24;;;;;;;5.28;2.85;;;15.90;59.70;;;;;;5075262;28;20021;-77
2021/10/17 12:15:02;;;;;;;5.93;2.85;;;16.00;59.60;;;;;;5093800;28;20032;-79
2021/10/17 12:17:28;;;;;;;4.97;3.20;;;16.00;59.20;;;;;;5090880;28;20116;-76
2021/10/17 12:20:02;;;;;;;4.57;2.60;;;16.00;59.00;;;;;;5090958;28;20059;-75
2021/10/17 12:22:28;;;;;;;5.47;2.80;;;16.10;58.90;;;;;;5108367;28;20021;-79
2021/10/17 12:28:18;;;;;;;6.68;3.28;;;16.10;58.20;;;;;;5075689;28;20044;-79
2021/10/17 12:30:51;;;;;;;5.65;3.20;;;16.00;57.80;;;;;;5075090;28;20020;-79
2021/10/17 12:33:33;;;;;;;5.00;2.85;;;16.10;57.90;;;;;;5090596;28;20051;-81
2021/10/17 12:36:03;;;;;;;8.57;3.70;;;16.10;58.00;;;;;;5091352;28;20033;-77
2021/10/17 12:38:35;;;;;;;6.28;3.22;;;16.10;58.50;;;;;;5090313;28;20129;-74
2021/10/17 12:41:06;;;;;;;5.82;2.70;;;16.10;58.10;;;;;;5090463;28;20036;-76
2021/10/17 12:43:41;;;;;;;4.38;2.50;;;16.10;58.10;;;;;;5074861;28;20054;-78
2021/10/17 12:46:16;;;;;;;5.15;2.95;;;16.20;58.40;;;;;;5090141;28;20029;-78
2021/10/17 12:48:47;;;;;;;6.68;3.30;;;16.20;58.50;;;;;;5075061;28;20094;-78
2021/10/17 12:51:37;;;;;;;6.93;3.03;;;16.20;58.40;;;;;;5090350;28;20035;-78
2021/10/17 12:54:25;;;;;;;4.30;3.15;;;16.20;58.20;;;;;;5077305;28;20040;-78
2021/10/17 12:56:50;;;;;;;4.65;2.85;;;16.20;58.10;;;;;;5090520;28;20400;-79
2021/10/17 12:59:22;;;;;;;5.05;2.80;;;16.30;58.00;;;;;;5074887;28;20032;-78
2021/10/17 13:02:03;;;;;;;3.95;2.67;;;16.30;57.80;;;;;;5090683;28;20062;-78
2021/10/17 13:05:13;;;;;;;4.68;2.70;;;16.40;57.70;;;;;;5107940;28;20033;-79
2021/10/17 13:07:39;;;;;;;5.90;2.92;;;16.40;57.90;;;;;;5013106;28;20498;-78
2021/10/17 13:10:07;;;;;;;5.63;3.00;;;16.40;58.00;;;;;;5079048;28;20071;-78
2021/10/17 13:12:45;;;;;;;4.38;2.80;;;16.40;57.80;;;;;;5090323;28;20063;-79
2021/10/17 13:15:26;;;;;;;4.93;2.85;;;16.50;57.80;;;;;;5090425;28;20091;-79
2021/10/17 13:17:53;;;;;;;3.80;2.85;;;16.50;57.60;;;;;;5107461;28;20518;-79
2021/10/17 13:20:21;;;;;;;4.50;2.80;;;16.50;57.40;;;;;;5089895;28;20107;-79
2021/10/17 13:22:49;;;;;;;5.82;3.00;;;16.50;57.20;;;;;;5089699;28;20071;-78
2021/10/17 13:25:16;;;;;;;4.13;2.50;;;16.50;57.00;;;;;;5089607;28;20491;-78
2021/10/17 13:27:43;;;;;;;7.65;3.38;;;16.50;57.00;;;;;;5079014;28;20032;-78